Jemez Springs, Valles Caldera, New Mexico Weather observations

Data are for 10 minute period ending at time listed.
 Day   Time   Solar   Ave.   Ave.  Ave.  Vector  Max.   Baro.   Total    
  of    of     Rad.   Air    Rel.  Wind   Wind   Wind  Press.  Precip.   
Year   Day            Temp.  Hum.  Speed  Dir.   Gust                    
2014   (MST)  Kw/m2    F      %     mph   deg.    mph    mb.     in.     
-------------------------------------------------------------------------
 272   10:30   0.12   64.3    57    6.0   188    13.1   807.9    0.00 
 272   10:40   0.14   64.5    57    7.7   183    14.9   807.8    0.00 
 272   10:50   0.30   64.8    56    9.3   178    16.4   807.8    0.00 
 272   11:00   0.45   66.1    54    8.4   174    15.5   807.6    0.00 
 272   11:10   0.35   67.1    45    9.1   189    20.3   807.4    0.00 
 272   11:20   0.43   67.6    36   12.9   178    22.1   807.1    0.00 
 272   11:30   0.18   67.1    39    9.7   177    16.1   807.0    0.00 
 272   11:40   0.25   67.2    39    9.4   179    18.5   806.8    0.00 
 272   11:50   0.39   67.4    37   13.1   186    23.9   806.6    0.00 
 272   12:00   0.47   68.7    34   11.8   183    22.7   806.4    0.00 
 272   12:10   0.20   68.5    34   11.8   189    26.2   806.2    0.00 
 272   12:20   0.07   67.7    35    9.6   186    23.9   806.0    0.00 
 272   12:30   0.12   66.7    40   11.5   196    27.4   806.3    0.00 
 272   12:40   0.46   65.4    47    9.9   177    19.1   806.1    0.00 
 272   12:50   0.12   66.2    43   10.4   174    20.9   805.9    0.00 
 272   13:00   0.26   65.2    47   12.0   180    22.1   806.1    0.00 
 272   13:10   0.33   63.7    51    8.6   232    16.7   806.4    0.00 
 272   13:20   0.15   62.6    52    8.4   337    20.3   806.6    0.00 
 272   13:30   0.07   60.8    55    5.2    44    16.7   807.1    0.00 
 272   13:40   0.33   59.5    59    4.0    44    10.2   807.1    0.00 
 272   13:50   0.42   59.8    58    2.6    63     6.0   806.7    0.00 
 272   14:00   0.37   60.7    56    8.4    71    18.5   806.8    0.00 
 272   14:10   0.17   60.2    58    5.3    72    12.5   806.8    0.00 
 272   14:20   0.04   59.7    60    4.9   116    19.1   807.5    0.05 
 272   14:30   0.02   54.4    72    7.6   140    22.1   807.6    0.06 
 272   14:40   0.17   53.9    72    6.0    89    11.3   806.9    0.00 
 272   14:50   0.45   56.2    70    5.6    80     9.0   806.6    0.00 
 272   15:00   0.43   58.8    70    3.3   294     7.2   806.3    0.00 
 272   15:10   0.51   61.0    64    2.9   320     6.0   806.3    0.00 
 272   15:20   0.47   63.1    62    3.4   315     6.6   806.1    0.00 
 272   15:30   0.44   64.3    56    3.7   224     9.6   806.0    0.00 
 272   15:40   0.41   65.0    45    5.3   172    14.3   805.9    0.00 
 272   15:50   0.37   65.8    44    6.0   160    10.8   805.8    0.00 
 272   16:00   0.34   66.0    43    7.0   162    13.1   805.7    0.00 
 272   16:10   0.31   66.3    42    6.7   171    16.1   805.8    0.00 
 272   16:20   0.27   67.1    37    4.3   192    13.7   805.8    0.00 
 272   16:30   0.22   67.2    34    4.1   196     9.0   805.9    0.00 
 272   16:40   0.03   65.1    35    3.1   216     9.0   806.0    0.00 
 272   16:50   0.02   63.7    36    2.9   275     8.4   806.0    0.00 
 272   17:00   0.02   63.1    35    3.9   241     9.0   806.2    0.00 
 272   17:10   0.02   63.0    35    5.6   190    10.8   806.3    0.00 
 272   17:20   0.01   62.5    35    5.2   115    12.5   806.4    0.00 
 272   17:30   0.01   61.5    42    1.8    85     5.4   806.5    0.00 
 272   17:40   0.01   59.2    47    2.9   316     6.6   806.7    0.00 
 272   17:50   0.01   57.5    52    2.2    11     4.2   806.9    0.00 
 272   18:00   0.00   55.4    59    2.3    31     4.8   807.0    0.00 
 272   18:10   0.00   54.7    59    2.8    14     6.6   807.1    0.00 
 272   18:20   0.00   53.8    61    3.7    20     6.0   807.3    0.00 
 272   18:30   0.00   53.1    63    4.3    18     7.8   807.3    0.00 
 272   18:40   0.00   52.1    64    2.3    15     5.4   807.3    0.00 
 272   18:50   0.00   52.0    62    3.0   349    10.8   807.3    0.00 
 272   19:00   0.00   54.5    49    4.8    38     9.3   807.2    0.00 
 272   19:10   0.00   56.0    46    4.3     4    11.9   807.4    0.00 
 272   19:20   0.00   54.6    49    2.9   344     7.8   807.6    0.00 
 272   19:30   0.00   53.2    53    4.4   340    10.2   807.7    0.00 
 272   19:40   0.00   52.3    56    4.1     7     9.0   807.6    0.00 
 272   19:50   0.00   51.1    58    3.4    10     6.0   807.6    0.00 
 272   20:00   0.00   49.9    62    3.6    29     6.0   807.6    0.00 
 272   20:10   0.00   49.4    64    3.0    46     6.0   807.7    0.00 
 272   20:20   0.00   48.1    69    1.7     3     4.2   807.8    0.00 
 272   20:30   0.00   47.1    70    2.0    20     4.8   807.9    0.00 
 272   20:40   0.00   46.6    72    4.4    34     7.2   807.9    0.00 
 272   20:50   0.00   46.4    71    2.8    28     5.4   808.1    0.00 
 272   21:00   0.00   45.7    72    3.1    26     6.0   808.3    0.00 
 272   21:10   0.00   47.5    64    5.0    19     8.4   808.4    0.00 
 272   21:20   0.00   47.5    64    4.2     6     8.4   808.5    0.00 
 272   21:30   0.00   47.7    62    4.7    14     7.8   808.6    0.00 
 272   21:40   0.00   47.9    60    5.9     7     9.6   808.7    0.00 
 272   21:50   0.00   47.7    60    6.1   354    11.3   808.8    0.00 
 272   22:00   0.00   47.4    61    6.5    11    10.2   808.8    0.00 
 272   22:10   0.00   47.0    61    7.9     8    13.1   808.8    0.00 
 272   22:20   0.00   46.9    62    9.1    15    16.1   808.6    0.00 
 272   22:30   0.00   46.3    63    9.9     3    16.7   808.4    0.00 
 272   22:40   0.00   46.4    62    4.3    20    11.9   808.4    0.00 
 272   22:50   0.00   45.4    65    3.8    33     7.2   808.3    0.00 
 272   23:00   0.00   45.2    66    6.0    29     8.4   808.2    0.00 
 272   23:10   0.00   45.6    64    5.9    23    10.2   808.2    0.00 
 272   23:20   0.00   46.4    60    5.4     8     7.8   808.1    0.00 
 272   23:30   0.00   46.3    62    5.5    18     8.4   808.1    0.00 
 272   23:40   0.00   45.7    63    5.7    31     7.8   808.2    0.00 
 272   23:50   0.00   45.3    63    5.5    30     7.8   808.1    0.00 
 273    0:00   0.00   44.7    65    4.9    30     7.2   808.0    0.00 
 273    0:10   0.00   44.3    66    5.4    22     7.8   807.9    0.00 
 273    0:20   0.00   44.5    65    6.0    24     9.0   807.9    0.00 
 273    0:30   0.00   44.8    64    5.8    20     8.4   807.9    0.00 
 273    0:40   0.00   44.9    63    4.9    28     8.4   807.9    0.00 
 273    0:50   0.00   45.2    62    6.0    18     9.0   807.9    0.00 
 273    1:00   0.00   45.6    61    6.0    18    10.8   807.9    0.00 
 273    1:10   0.00   45.3    62    5.8    14     9.6   808.0    0.00 
 273    1:20   0.00   45.6    60    7.0     4    11.3   808.0    0.00 
 273    1:30   0.00   45.4    62    6.2    15    10.2   808.0    0.00 
 273    1:40   0.00   44.5    64    5.2    23     7.2   808.0    0.00 
 273    1:50   0.00   44.1    65    5.3    25     7.2   807.9    0.00 
 273    2:00   0.00   43.9    66    4.8    30     7.2   807.9    0.00 
 273    2:10   0.00   43.9    65    5.2    24    12.5   807.9    0.00 
 273    2:20   0.00   45.0    62    6.0    18    10.2   807.9    0.00 
 273    2:30   0.00   44.9    62    6.4    14     9.6   807.8    0.00 
 273    2:40   0.00   45.0    61    6.5     8     9.0   807.8    0.00 
 273    2:50   0.00   44.8    62    6.1    10     9.6   807.7    0.00 
 273    3:00   0.00   44.6    62    5.9     5     9.6   807.6    0.00 
 273    3:10   0.00   44.5    62    6.3     2     9.6   807.6    0.00 
 273    3:20   0.00   44.2    62    6.2    10     9.6   807.6    0.00 
 273    3:30   0.00   44.1    62    6.5    16    10.8   807.6    0.00 
 273    3:40   0.00   43.8    63    5.1     9     9.0   807.6    0.00 
 273    3:50   0.00   43.4    64    3.9    16     8.4   807.6    0.00 
 273    4:00   0.00   42.6    66    2.3   354     5.4   807.6    0.00 
 273    4:10   0.00   41.9    68    1.5   343     4.2   807.5    0.00 
 273    4:20   0.00   41.3    69    2.3     2     5.4   807.6    0.00 
 273    4:30   0.00   41.2    69    1.6    21     4.2   807.6    0.00 
 273    4:40   0.00   41.0    69    2.7    17     5.4   807.5    0.00 
 273    4:50   0.00   41.4    68    5.5     1     9.6   807.5    0.00 
 273    5:00   0.00   41.5    67    5.9     7    10.2   807.5    0.00 
 273    5:10   0.00   41.4    67    5.5     4    10.8   807.6    0.00 
 273    5:20   0.00   41.5    66    6.0   360    12.5   807.7    0.00 
 273    5:30   0.00   41.1    67    6.3   358    10.2   807.7    0.00 
 273    5:40   0.00   41.1    66    6.3     5    10.8   807.7    0.00 
 273    5:50   0.00   40.9    67    6.7   358    10.8   807.7    0.00 
 273    6:00   0.00   40.9    66    7.0   359    11.9   807.7    0.00 
 273    6:10   0.01   40.9    66    6.2     4    11.3   807.7    0.00 
 273    6:20   0.01   40.5    67    4.7   356     8.4   807.8    0.00 
 273    6:30   0.01   40.6    67    5.7     6    10.8   807.7    0.00 
 273    6:40   0.01   40.5    67    6.0     1     9.6   807.8    0.00 
 273    6:50   0.02   40.3    68    6.5    16    10.2   807.7    0.00 
 273    7:00   0.02   40.3    68    6.4    17    11.3   807.8    0.00 
 273    7:10   0.11   41.2    66    5.6    26    10.2   807.8    0.00 
 273    7:20   0.18   43.9    61    4.5    30     7.8   807.8    0.00 
 273    7:30   0.18   45.7    58    3.0    39     6.0   807.7    0.00 
 273    7:40   0.21   47.4    54    3.2    71     5.4   807.7    0.00 
 273    7:50   0.16   48.7    52    3.4    49     5.4   807.6    0.00 
 273    8:00   0.36   51.0    47    2.2    78     6.0   807.5    0.00 
 273    8:10   0.38   52.1    44    1.8   159     3.0   807.5    0.00 
 273    8:20   0.46   54.1    42    2.2   137     4.8   807.5    0.00 
 273    8:30   0.49   55.5    41    1.6   157     4.2   807.2    0.00 
 273    8:40   0.52   57.1    38    3.6   146     7.2   807.2    0.00 
 273    8:50   0.55   57.3    36    5.2   161     7.2   807.1    0.00 
 273    9:00   0.58   57.5    36    5.8   169     9.0   807.1    0.00 
 273    9:10   0.61   57.9    35    6.2   167     9.0   807.1    0.00 
 273    9:20   0.63   58.7    34    7.1   174    10.8   807.1    0.00 
 273    9:30   0.66   59.1    35    5.5   173     9.9   807.0    0.00 
 273    9:40   0.68   60.9    33    6.4   183    11.9   806.9    0.00 
 273    9:50   0.70   62.2    30    6.2   143     9.6   806.8    0.00 
 273   10:00   0.72   63.0    28    5.9   153    11.3   806.7    0.00 
 273   10:10   0.74   64.4    27    5.2   216    12.5   806.7    0.00 
 273   10:20   0.76   65.8    25    5.0   201    16.4   806.6    0.00 

Return to Jemez Springs, Valles Caldera graphs page.


Western Regional Climate Center,wrcc@dri.edu